createdAt,value
2018-11-22T12:18:48.084Z,72.86
2018-11-22T12:21:52.619Z,74.50
2018-11-22T12:24:57.205Z,73.51
2018-11-22T12:28:02.647Z,72.45
2018-11-22T12:31:07.338Z,71.32
2018-11-22T12:34:15.091Z,70.09
2018-11-22T12:37:24.769Z,71.26
2018-11-22T12:40:29.368Z,71.36
2018-11-22T12:43:33.907Z,71.65
2018-11-22T12:46:39.136Z,71.43
2018-11-22T12:49:43.768Z,71.87
2018-11-22T12:52:48.300Z,71.79
2018-11-22T12:55:52.937Z,71.88
2018-11-22T12:58:57.476Z,71.72
2018-11-22T13:02:02.085Z,71.72
2018-11-22T13:05:08.200Z,71.15
2018-11-22T13:08:12.762Z,71.68
2018-11-22T13:11:17.344Z,72.00
2018-11-22T13:14:22.022Z,71.29
2018-11-22T13:17:26.818Z,71.30
2018-11-22T13:20:31.375Z,72.43
2018-11-22T13:23:35.931Z,71.58
2018-11-22T13:26:40.635Z,72.23
2018-11-22T13:29:45.179Z,71.62
2018-11-22T13:32:50.442Z,72.15
2018-11-22T13:35:55.051Z,71.70
2018-11-22T13:38:59.616Z,71.55
2018-11-22T13:42:04.295Z,72.65
2018-11-22T13:45:11.860Z,72.13
2018-11-22T13:48:16.428Z,72.07
2018-11-22T13:51:21.015Z,72.85
2018-11-22T13:54:25.650Z,72.67
2018-11-22T13:57:30.229Z,72.81
2018-11-22T14:00:35.297Z,73.49
2018-11-22T14:03:39.853Z,73.60
2018-11-22T14:06:44.391Z,73.33
2018-11-22T14:09:48.916Z,72.48
2018-11-22T14:12:53.535Z,73.02
2018-11-22T14:15:58.119Z,72.96
2018-11-22T14:19:02.783Z,73.38
2018-11-22T14:22:07.352Z,73.47
2018-11-22T14:25:13.323Z,73.88
2018-11-22T14:28:17.861Z,74.38
2018-11-22T14:31:22.420Z,74.85
2018-11-22T14:34:26.971Z,73.37
2018-11-22T14:37:31.612Z,74.26
2018-11-22T14:40:36.172Z,73.66
2018-11-22T14:43:40.759Z,73.57
2018-11-22T14:46:45.312Z,74.09
2018-11-22T14:49:49.980Z,74.14
2018-11-22T14:53:08.056Z,73.55
2018-11-22T14:56:12.747Z,74.01
2018-11-22T14:59:17.384Z,73.20
2018-11-22T15:02:21.988Z,74.04
2018-11-22T15:05:26.573Z,75.37
2018-11-22T15:08:31.121Z,75.57
2018-11-22T15:11:35.680Z,75.23
2018-11-22T15:14:40.234Z,76.02
2018-11-22T15:17:44.882Z,76.19
2018-11-22T15:20:49.434Z,76.30
2018-11-22T15:23:53.959Z,75.92
2018-11-22T15:26:58.642Z,76.04
2018-11-22T15:30:03.550Z,76.18
2018-11-22T15:33:08.139Z,75.64
2018-11-22T15:36:12.683Z,76.28
2018-11-22T15:39:17.418Z,76.17
2018-11-22T15:42:21.964Z,76.10
2018-11-22T15:45:30.322Z,76.26
2018-11-22T15:48:32.010Z,76.02
2018-11-22T15:51:36.568Z,75.77
2018-11-22T15:54:41.195Z,74.96
2018-11-22T15:57:47.142Z,75.56
2018-11-22T16:00:51.758Z,74.38
2018-11-22T16:03:56.393Z,74.54
2018-11-22T16:07:01.248Z,75.48
2018-11-22T16:10:08.620Z,74.14
2018-11-22T16:13:13.559Z,74.88
2018-11-22T16:16:18.166Z,74.63
2018-11-22T16:19:22.851Z,74.58
2018-11-22T16:22:27.398Z,74.05
2018-11-22T16:25:31.998Z,74.93
2018-11-22T16:28:36.599Z,74.74
2018-11-22T16:31:41.291Z,74.69
2018-11-22T16:34:45.904Z,75.10
2018-11-22T16:37:50.475Z,73.47
2018-11-22T16:40:55.052Z,73.84
2018-11-22T16:44:03.247Z,73.69
2018-11-22T16:47:04.380Z,73.89
2018-11-22T16:50:10.208Z,73.94
2018-11-22T16:53:14.810Z,73.21
2018-11-22T16:56:19.365Z,73.79
2018-11-22T16:59:24.016Z,73.22
2018-11-22T17:02:28.573Z,73.82
2018-11-22T17:05:33.746Z,73.02
2018-11-22T17:08:38.289Z,73.17
2018-11-22T17:11:42.901Z,73.96
2018-11-22T17:14:47.460Z,73.84
2018-11-22T17:17:52.522Z,73.33
2018-11-22T17:20:57.156Z,74.55
2018-11-22T17:24:01.743Z,73.30
2018-11-22T17:27:06.716Z,73.57
2018-11-22T17:30:13.944Z,74.06
2018-11-22T17:33:18.607Z,74.41
2018-11-22T17:36:23.168Z,74.58
2018-11-22T17:39:31.448Z,73.99
2018-11-22T17:42:32.658Z,72.95
2018-11-22T17:45:38.639Z,73.54
2018-11-22T17:48:43.270Z,73.57
2018-11-22T17:51:47.893Z,73.45
2018-11-22T17:54:52.535Z,73.24
2018-11-22T17:57:57.156Z,74.65
2018-11-22T18:01:01.765Z,74.47
2018-11-22T18:04:06.403Z,74.89
2018-11-22T18:07:11.226Z,73.69
2018-11-22T18:10:17.553Z,74.24
2018-11-22T18:13:22.185Z,73.72
2018-11-22T18:16:26.735Z,74.00
2018-11-22T18:19:31.407Z,74.05
2018-11-22T18:22:36.038Z,73.48
2018-11-22T18:25:40.590Z,73.89
2018-11-22T18:28:45.187Z,74.23
2018-11-22T18:31:49.780Z,74.30
2018-11-22T18:34:54.357Z,73.11
2018-11-22T18:37:59.028Z,73.27
2018-11-22T18:41:03.581Z,73.60
2018-11-22T18:44:08.222Z,72.95
2018-11-22T18:47:12.821Z,73.26
2018-11-22T18:50:25.163Z,74.45
2018-11-22T18:53:29.795Z,73.29
2018-11-22T18:56:37.104Z,74.12
2018-11-22T18:59:38.981Z,73.20
2018-11-22T19:02:43.714Z,73.00
2018-11-22T19:05:48.410Z,72.54
2018-11-22T19:08:53.108Z,73.12
2018-11-22T19:11:57.693Z,73.47
2018-11-22T19:15:02.241Z,73.69
2018-11-22T19:18:07.588Z,73.68
2018-11-22T19:21:12.257Z,72.87
2018-11-22T19:24:16.827Z,73.85
2018-11-22T19:27:21.425Z,74.38
2018-11-22T19:30:27.322Z,75.31
2018-11-22T19:33:31.889Z,74.34
2018-11-22T19:36:36.486Z,74.86
2018-11-22T19:39:41.116Z,74.52
2018-11-22T19:42:46.753Z,74.03
2018-11-22T19:45:51.372Z,73.91
2018-11-22T19:48:56.058Z,73.27
2018-11-22T19:52:00.628Z,73.23
2018-11-22T19:55:05.587Z,73.51
2018-11-22T19:58:11.677Z,73.05
2018-11-22T20:01:16.223Z,73.75
2018-11-22T20:04:20.849Z,72.86
2018-11-22T20:07:25.773Z,72.07
2018-11-22T20:10:31.792Z,72.14
2018-11-22T20:13:36.364Z,71.37
2018-11-22T20:16:40.972Z,70.89
2018-11-22T20:19:45.721Z,71.61
2018-11-22T20:22:50.617Z,71.11
2018-11-22T20:25:55.189Z,70.91
2018-11-22T20:28:59.824Z,71.24
2018-11-22T20:32:04.454Z,70.65
2018-11-22T20:35:11.393Z,71.54
2018-11-22T20:38:16.024Z,71.00
2018-11-22T20:41:20.615Z,71.40
2018-11-22T20:44:25.226Z,70.84
2018-11-22T20:47:29.807Z,71.03
2018-11-22T20:50:35.220Z,70.24
2018-11-22T20:53:40.213Z,70.83
2018-11-22T20:56:44.766Z,70.35
2018-11-22T20:59:49.328Z,70.28
2018-11-22T21:02:53.904Z,70.75
2018-11-22T21:05:58.517Z,69.41
2018-11-22T21:09:03.462Z,69.78
2018-11-22T21:12:11.631Z,69.89
2018-11-22T21:15:19.755Z,71.13
2018-11-22T21:18:24.303Z,70.90
2018-11-22T21:21:29.053Z,70.90
2018-11-22T21:24:33.666Z,70.40
2018-11-22T21:27:38.646Z,69.94
2018-11-22T21:30:43.588Z,70.37
2018-11-22T21:33:48.530Z,70.67
2018-11-22T21:36:53.116Z,70.50
2018-11-22T21:39:57.975Z,70.83
2018-11-22T21:43:02.685Z,71.15
2018-11-22T21:46:07.345Z,72.45
2018-11-22T21:49:15.937Z,71.07
2018-11-22T21:52:20.481Z,70.09
2018-11-22T21:55:27.481Z,70.46
2018-11-22T21:58:32.030Z,69.99
2018-11-22T22:01:36.620Z,69.70
2018-11-22T22:04:41.177Z,70.25
2018-11-22T22:07:45.772Z,69.94
2018-11-22T22:10:50.342Z,68.93
2018-11-22T22:13:54.923Z,70.16
2018-11-22T22:16:59.474Z,68.66
2018-11-22T22:20:04.500Z,69.18
2018-11-22T22:23:13.202Z,69.66
2018-11-22T22:26:13.642Z,69.83
2018-11-22T22:29:18.207Z,69.39
2018-11-22T22:32:22.777Z,70.00
2018-11-22T22:35:27.426Z,69.53
2018-11-22T22:38:32.009Z,69.15
2018-11-22T22:41:36.557Z,68.91
2018-11-22T22:44:41.174Z,69.18
2018-11-22T22:47:46.479Z,69.12
2018-11-22T22:50:51.095Z,69.11
2018-11-22T22:53:55.736Z,69.53
2018-11-22T22:57:00.316Z,69.90
2018-11-22T23:00:06.147Z,70.68
2018-11-22T23:03:10.779Z,70.19
2018-11-22T23:06:15.579Z,69.68
2018-11-22T23:09:20.168Z,69.65
2018-11-22T23:12:24.715Z,68.93
2018-11-22T23:15:30.282Z,69.03
2018-11-22T23:18:35.180Z,68.74
2018-11-22T23:21:39.824Z,68.42
2018-11-22T23:24:44.472Z,69.62
2018-11-22T23:27:49.032Z,69.35
2018-11-22T23:30:53.639Z,68.99
2018-11-22T23:33:58.171Z,69.60
2018-11-22T23:37:02.812Z,70.33
2018-11-22T23:40:09.810Z,69.67
2018-11-22T23:43:14.410Z,69.49
2018-11-22T23:46:19.035Z,69.28
2018-11-22T23:49:23.636Z,70.12
2018-11-22T23:52:28.259Z,70.11
2018-11-22T23:55:32.925Z,70.11
2018-11-22T23:58:37.487Z,69.70
